sensor_id;sensor_type;location;lat;lon;timestamp;temperature;humidity
17170;DHT22;8700;48.222;16.342;2022-07-06T00:02:59;21.60;99.90
17170;DHT22;8700;48.222;16.342;2022-07-06T00:06:20;21.50;99.90
17170;DHT22;8700;48.222;16.342;2022-07-06T00:09:42;21.50;99.90
17170;DHT22;8700;48.222;16.342;2022-07-06T00:13:03;21.40;99.90
17170;DHT22;8700;48.222;16.342;2022-07-06T00:21:14;21.40;99.90
17170;DHT22;8700;48.222;16.342;2022-07-06T00:24:36;21.30;99.90
17170;DHT22;8700;48.222;16.342;2022-07-06T00:27:58;21.30;99.90
17170;DHT22;8700;48.222;16.342;2022-07-06T00:31:19;21.20;99.90
17170;DHT22;8700;48.222;16.342;2022-07-06T00:34:40;21.30;99.90
17170;DHT22;8700;48.222;16.342;2022-07-06T00:38:04;21.30;99.90
17170;DHT22;8700;48.222;16.342;2022-07-06T00:41:25;21.30;99.90
17170;DHT22;8700;48.222;16.342;2022-07-06T00:44:47;21.40;99.90
17170;DHT22;8700;48.222;16.342;2022-07-06T00:48:08;21.40;99.90
17170;DHT22;8700;48.222;16.342;2022-07-06T00:51:31;21.50;99.90
17170;DHT22;8700;48.222;16.342;2022-07-06T00:54:54;21.30;99.90
17170;DHT22;8700;48.222;16.342;2022-07-06T00:58:16;21.00;99.90
17170;DHT22;8700;48.222;16.342;2022-07-06T01:01:37;21.00;99.90
17170;DHT22;8700;48.222;16.342;2022-07-06T01:05:00;21.00;99.90
17170;DHT22;8700;48.222;16.342;2022-07-06T01:08:22;21.30;99.90
17170;DHT22;8700;48.222;16.342;2022-07-06T01:11:45;21.40;99.90
17170;DHT22;8700;48.222;16.342;2022-07-06T01:15:08;21.40;99.90
17170;DHT22;8700;48.222;16.342;2022-07-06T01:18:30;21.50;99.90
17170;DHT22;8700;48.222;16.342;2022-07-06T01:21:53;21.50;99.90
17170;DHT22;8700;48.222;16.342;2022-07-06T01:25:15;21.40;99.90
17170;DHT22;8700;48.222;16.342;2022-07-06T01:28:36;21.50;99.90
17170;DHT22;8700;48.222;16.342;2022-07-06T01:32:01;21.50;99.90
17170;DHT22;8700;48.222;16.342;2022-07-06T01:35:24;21.50;99.90
17170;DHT22;8700;48.222;16.342;2022-07-06T01:38:51;21.50;99.90
17170;DHT22;8700;48.222;16.342;2022-07-06T01:42:13;21.50;99.90
17170;DHT22;8700;48.222;16.342;2022-07-06T01:45:36;21.60;99.90
17170;DHT22;8700;48.222;16.342;2022-07-06T01:48:57;21.60;99.90
17170;DHT22;8700;48.222;16.342;2022-07-06T01:52:19;21.60;99.90
17170;DHT22;8700;48.222;16.342;2022-07-06T01:55:42;21.60;99.90
17170;DHT22;8700;48.222;16.342;2022-07-06T01:59:04;21.60;99.90
17170;DHT22;8700;48.222;16.342;2022-07-06T02:02:26;21.60;99.90
17170;DHT22;8700;48.222;16.342;2022-07-06T02:05:47;21.70;99.90
17170;DHT22;8700;48.222;16.342;2022-07-06T02:09:09;21.60;99.90
17170;DHT22;8700;48.222;16.342;2022-07-06T02:12:32;21.70;99.90
17170;DHT22;8700;48.222;16.342;2022-07-06T02:15:53;21.70;99.90
17170;DHT22;8700;48.222;16.342;2022-07-06T02:19:15;21.80;99.90
17170;DHT22;8700;48.222;16.342;2022-07-06T02:22:36;21.90;99.90
17170;DHT22;8700;48.222;16.342;2022-07-06T02:25:57;21.90;99.90
17170;DHT22;8700;48.222;16.342;2022-07-06T02:29:20;22.00;99.90
17170;DHT22;8700;48.222;16.342;2022-07-06T02:32:42;22.00;99.90
17170;DHT22;8700;48.222;16.342;2022-07-06T02:36:03;22.10;99.90
17170;DHT22;8700;48.222;16.342;2022-07-06T02:39:25;22.20;99.90
17170;DHT22;8700;48.222;16.342;2022-07-06T02:42:46;22.10;99.90
17170;DHT22;8700;48.222;16.342;2022-07-06T02:46:10;22.00;99.90
17170;DHT22;8700;48.222;16.342;2022-07-06T02:49:31;21.90;99.90
17170;DHT22;8700;48.222;16.342;2022-07-06T02:52:52;21.90;99.90
17170;DHT22;8700;48.222;16.342;2022-07-06T02:56:14;21.70;99.90
17170;DHT22;8700;48.222;16.342;2022-07-06T02:59:36;21.50;99.90
17170;DHT22;8700;48.222;16.342;2022-07-06T03:02:59;21.30;99.90
17170;DHT22;8700;48.222;16.342;2022-07-06T03:06:21;21.20;99.90
17170;DHT22;8700;48.222;16.342;2022-07-06T03:09:42;21.10;99.90
17170;DHT22;8700;48.222;16.342;2022-07-06T03:13:03;20.90;99.90
17170;DHT22;8700;48.222;16.342;2022-07-06T03:16:25;21.00;99.90
17170;DHT22;8700;48.222;16.342;2022-07-06T03:19:48;21.00;99.90
17170;DHT22;8700;48.222;16.342;2022-07-06T03:23:09;21.00;99.90
17170;DHT22;8700;48.222;16.342;2022-07-06T03:26:31;21.10;99.90
17170;DHT22;8700;48.222;16.342;2022-07-06T03:29:53;21.20;99.90
17170;DHT22;8700;48.222;16.342;2022-07-06T03:33:14;21.30;99.90
17170;DHT22;8700;48.222;16.342;2022-07-06T03:36:37;21.20;99.90
17170;DHT22;8700;48.222;16.342;2022-07-06T03:39:59;21.30;99.90
17170;DHT22;8700;48.222;16.342;2022-07-06T03:43:20;21.20;99.90
17170;DHT22;8700;48.222;16.342;2022-07-06T03:46:41;21.10;99.90
17170;DHT22;8700;48.222;16.342;2022-07-06T03:50:03;21.20;99.90
17170;DHT22;8700;48.222;16.342;2022-07-06T03:53:26;21.20;99.90
17170;DHT22;8700;48.222;16.342;2022-07-06T03:56:48;21.20;99.90
17170;DHT22;8700;48.222;16.342;2022-07-06T04:00:10;21.20;99.90
17170;DHT22;8700;48.222;16.342;2022-07-06T04:03:32;21.30;99.90
17170;DHT22;8700;48.222;16.342;2022-07-06T04:06:53;21.50;99.90
17170;DHT22;8700;48.222;16.342;2022-07-06T04:10:17;21.50;99.90
17170;DHT22;8700;48.222;16.342;2022-07-06T04:13:38;21.70;99.90
17170;DHT22;8700;48.222;16.342;2022-07-06T04:17:02;21.70;99.90
17170;DHT22;8700;48.222;16.342;2022-07-06T04:20:44;21.80;99.90
17170;DHT22;8700;48.222;16.342;2022-07-06T04:24:06;21.90;99.90
17170;DHT22;8700;48.222;16.342;2022-07-06T04:27:29;22.00;99.90
17170;DHT22;8700;48.222;16.342;2022-07-06T04:30:50;21.90;99.90
17170;DHT22;8700;48.222;16.342;2022-07-06T04:34:12;21.90;99.90
17170;DHT22;8700;48.222;16.342;2022-07-06T04:37:33;22.00;99.90
17170;DHT22;8700;48.222;16.342;2022-07-06T04:40:54;22.10;99.90
17170;DHT22;8700;48.222;16.342;2022-07-06T04:44:17;22.10;99.90
17170;DHT22;8700;48.222;16.342;2022-07-06T04:47:39;22.00;99.90
17170;DHT22;8700;48.222;16.342;2022-07-06T04:51:00;22.20;99.90
17170;DHT22;8700;48.222;16.342;2022-07-06T04:54:23;22.20;99.90
17170;DHT22;8700;48.222;16.342;2022-07-06T04:57:44;22.20;99.90
17170;DHT22;8700;48.222;16.342;2022-07-06T05:01:07;22.10;99.90
17170;DHT22;8700;48.222;16.342;2022-07-06T05:04:28;22.00;99.90
17170;DHT22;8700;48.222;16.342;2022-07-06T05:07:50;22.20;99.90
17170;DHT22;8700;48.222;16.342;2022-07-06T05:11:12;22.20;99.90
17170;DHT22;8700;48.222;16.342;2022-07-06T05:14:33;22.30;99.90
17170;DHT22;8700;48.222;16.342;2022-07-06T05:17:57;22.30;99.90
17170;DHT22;8700;48.222;16.342;2022-07-06T05:21:19;22.40;99.90
17170;DHT22;8700;48.222;16.342;2022-07-06T05:24:40;22.30;99.90
17170;DHT22;8700;48.222;16.342;2022-07-06T05:28:04;22.30;99.90
17170;DHT22;8700;48.222;16.342;2022-07-06T05:31:25;22.40;99.90
17170;DHT22;8700;48.222;16.342;2022-07-06T05:34:49;22.50;99.90
17170;DHT22;8700;48.222;16.342;2022-07-06T05:38:11;22.90;99.90
17170;DHT22;8700;48.222;16.342;2022-07-06T05:41:35;23.40;99.90
17170;DHT22;8700;48.222;16.342;2022-07-06T05:44:56;23.90;99.90
17170;DHT22;8700;48.222;16.342;2022-07-06T05:48:18;24.30;99.90
17170;DHT22;8700;48.222;16.342;2022-07-06T05:51:58;24.40;99.90
17170;DHT22;8700;48.222;16.342;2022-07-06T05:55:20;24.50;99.90
17170;DHT22;8700;48.222;16.342;2022-07-06T05:58:41;24.40;99.90
17170;DHT22;8700;48.222;16.342;2022-07-06T06:02:03;24.10;99.90
17170;DHT22;8700;48.222;16.342;2022-07-06T06:05:24;23.80;99.90
17170;DHT22;8700;48.222;16.342;2022-07-06T06:08:48;24.00;99.90
17170;DHT22;8700;48.222;16.342;2022-07-06T06:12:09;24.20;99.90
17170;DHT22;8700;48.222;16.342;2022-07-06T06:15:32;24.30;99.90
17170;DHT22;8700;48.222;16.342;2022-07-06T06:18:53;24.40;99.90
17170;DHT22;8700;48.222;16.342;2022-07-06T06:22:15;24.40;99.90
17170;DHT22;8700;48.222;16.342;2022-07-06T06:25:39;24.70;99.90
17170;DHT22;8700;48.222;16.342;2022-07-06T06:29:01;25.00;99.90
17170;DHT22;8700;48.222;16.342;2022-07-06T06:32:22;24.50;99.90
17170;DHT22;8700;48.222;16.342;2022-07-06T06:35:45;24.50;99.90
17170;DHT22;8700;48.222;16.342;2022-07-06T06:39:06;24.90;99.90
17170;DHT22;8700;48.222;16.342;2022-07-06T06:42:30;25.30;99.90
17170;DHT22;8700;48.222;16.342;2022-07-06T06:45:51;25.40;99.90
17170;DHT22;8700;48.222;16.342;2022-07-06T06:49:13;25.30;99.90
17170;DHT22;8700;48.222;16.342;2022-07-06T06:52:35;25.00;99.90
17170;DHT22;8700;48.222;16.342;2022-07-06T06:55:57;24.80;99.90
17170;DHT22;8700;48.222;16.342;2022-07-06T06:59:20;24.70;99.90
17170;DHT22;8700;48.222;16.342;2022-07-06T07:02:43;24.80;99.90
17170;DHT22;8700;48.222;16.342;2022-07-06T07:06:05;24.60;99.90
17170;DHT22;8700;48.222;16.342;2022-07-06T07:09:27;24.60;99.90
17170;DHT22;8700;48.222;16.342;2022-07-06T07:12:49;24.50;99.90
17170;DHT22;8700;48.222;16.342;2022-07-06T07:16:12;24.40;99.90
17170;DHT22;8700;48.222;16.342;2022-07-06T07:19:33;24.50;99.90
17170;DHT22;8700;48.222;16.342;2022-07-06T07:22:55;24.80;99.90
17170;DHT22;8700;48.222;16.342;2022-07-06T07:26:17;24.80;99.90
17170;DHT22;8700;48.222;16.342;2022-07-06T07:29:39;25.00;99.90
17170;DHT22;8700;48.222;16.342;2022-07-06T07:33:02;25.40;99.90
17170;DHT22;8700;48.222;16.342;2022-07-06T07:36:24;26.70;99.90
17170;DHT22;8700;48.222;16.342;2022-07-06T07:39:45;28.50;99.90
17170;DHT22;8700;48.222;16.342;2022-07-06T07:43:08;30.00;99.90
17170;DHT22;8700;48.222;16.342;2022-07-06T07:46:29;29.40;99.90
17170;DHT22;8700;48.222;16.342;2022-07-06T07:49:52;30.20;99.90
17170;DHT22;8700;48.222;16.342;2022-07-06T07:53:13;31.20;97.90
17170;DHT22;8700;48.222;16.342;2022-07-06T07:56:35;32.40;95.90
17170;DHT22;8700;48.222;16.342;2022-07-06T07:59:57;32.10;93.00
17170;DHT22;8700;48.222;16.342;2022-07-06T08:03:18;30.10;95.30
17170;DHT22;8700;48.222;16.342;2022-07-06T08:06:41;29.20;97.40
17170;DHT22;8700;48.222;16.342;2022-07-06T08:10:03;28.50;98.50
17170;DHT22;8700;48.222;16.342;2022-07-06T08:13:25;28.40;98.50
17170;DHT22;8700;48.222;16.342;2022-07-06T08:16:47;28.90;98.70
17170;DHT22;8700;48.222;16.342;2022-07-06T08:20:09;30.90;96.30
17170;DHT22;8700;48.222;16.342;2022-07-06T08:23:33;32.40;93.80
17170;DHT22;8700;48.222;16.342;2022-07-06T08:26:55;32.90;92.90
17170;DHT22;8700;48.222;16.342;2022-07-06T08:30:18;34.10;90.10
17170;DHT22;8700;48.222;16.342;2022-07-06T08:33:40;33.90;87.90
17170;DHT22;8700;48.222;16.342;2022-07-06T08:37:02;34.30;84.90
17170;DHT22;8700;48.222;16.342;2022-07-06T08:40:31;34.60;83.70
17170;DHT22;8700;48.222;16.342;2022-07-06T08:43:54;34.80;82.10
17170;DHT22;8700;48.222;16.342;2022-07-06T08:47:15;35.60;80.50
17170;DHT22;8700;48.222;16.342;2022-07-06T08:50:38;36.20;76.30
17170;DHT22;8700;48.222;16.342;2022-07-06T08:54:00;36.60;75.30
17170;DHT22;8700;48.222;16.342;2022-07-06T08:57:25;36.40;73.30
17170;DHT22;8700;48.222;16.342;2022-07-06T09:00:47;35.20;74.60
17170;DHT22;8700;48.222;16.342;2022-07-06T09:04:09;35.70;73.00
17170;DHT22;8700;48.222;16.342;2022-07-06T09:07:32;33.90;73.20
17170;DHT22;8700;48.222;16.342;2022-07-06T09:10:57;32.20;73.00
17170;DHT22;8700;48.222;16.342;2022-07-06T09:14:20;31.20;76.80
17170;DHT22;8700;48.222;16.342;2022-07-06T09:17:43;31.80;78.90
17170;DHT22;8700;48.222;16.342;2022-07-06T09:21:04;32.30;75.50
17170;DHT22;8700;48.222;16.342;2022-07-06T09:24:26;31.40;76.70
17170;DHT22;8700;48.222;16.342;2022-07-06T09:27:48;31.00;78.20
17170;DHT22;8700;48.222;16.342;2022-07-06T09:31:16;30.60;80.70
17170;DHT22;8700;48.222;16.342;2022-07-06T09:34:41;30.80;82.00
17170;DHT22;8700;48.222;16.342;2022-07-06T09:38:04;32.00;79.80
17170;DHT22;8700;48.222;16.342;2022-07-06T09:41:32;32.40;78.60
17170;DHT22;8700;48.222;16.342;2022-07-06T09:44:54;32.10;79.10
17170;DHT22;8700;48.222;16.342;2022-07-06T09:48:19;33.10;77.10
17170;DHT22;8700;48.222;16.342;2022-07-06T09:51:41;31.80;78.70
17170;DHT22;8700;48.222;16.342;2022-07-06T09:55:17;31.40;78.90
17170;DHT22;8700;48.222;16.342;2022-07-06T09:58:39;31.30;76.50
17170;DHT22;8700;48.222;16.342;2022-07-06T10:02:03;30.50;77.30
17170;DHT22;8700;48.222;16.342;2022-07-06T10:05:27;31.00;79.00
17170;DHT22;8700;48.222;16.342;2022-07-06T10:08:51;32.80;76.30
17170;DHT22;8700;48.222;16.342;2022-07-06T10:12:14;33.90;75.10
17170;DHT22;8700;48.222;16.342;2022-07-06T10:15:38;33.40;74.20
17170;DHT22;8700;48.222;16.342;2022-07-06T10:19:02;34.60;72.20
17170;DHT22;8700;48.222;16.342;2022-07-06T10:22:30;35.00;68.40
17170;DHT22;8700;48.222;16.342;2022-07-06T10:26:06;33.90;68.60
17170;DHT22;8700;48.222;16.342;2022-07-06T10:29:54;32.80;70.50
17170;DHT22;8700;48.222;16.342;2022-07-06T10:33:17;31.70;72.10
17170;DHT22;8700;48.222;16.342;2022-07-06T10:36:41;32.00;70.60
17170;DHT22;8700;48.222;16.342;2022-07-06T10:40:09;33.00;69.90
17170;DHT22;8700;48.222;16.342;2022-07-06T10:43:49;32.40;71.30
17170;DHT22;8700;48.222;16.342;2022-07-06T10:47:15;31.30;73.10
17170;DHT22;8700;48.222;16.342;2022-07-06T10:50:40;30.30;75.70
17170;DHT22;8700;48.222;16.342;2022-07-06T10:54:05;29.40;79.80
17170;DHT22;8700;48.222;16.342;2022-07-06T10:57:29;29.10;82.20
17170;DHT22;8700;48.222;16.342;2022-07-06T11:00:52;27.00;82.20
17170;DHT22;8700;48.222;16.342;2022-07-06T11:04:15;26.30;81.80
17170;DHT22;8700;48.222;16.342;2022-07-06T11:07:49;25.50;82.40
17170;DHT22;8700;48.222;16.342;2022-07-06T11:11:11;24.90;83.40
17170;DHT22;8700;48.222;16.342;2022-07-06T11:14:36;24.60;84.00
17170;DHT22;8700;48.222;16.342;2022-07-06T11:18:10;25.10;84.10
17170;DHT22;8700;48.222;16.342;2022-07-06T11:21:38;26.20;82.20
17170;DHT22;8700;48.222;16.342;2022-07-06T11:25:01;26.90;80.80
17170;DHT22;8700;48.222;16.342;2022-07-06T11:28:24;27.30;79.40
17170;DHT22;8700;48.222;16.342;2022-07-06T11:31:50;27.90;77.70
17170;DHT22;8700;48.222;16.342;2022-07-06T11:35:12;29.70;75.30
17170;DHT22;8700;48.222;16.342;2022-07-06T11:38:35;30.50;73.70
17170;DHT22;8700;48.222;16.342;2022-07-06T11:41:59;30.60;74.30
17170;DHT22;8700;48.222;16.342;2022-07-06T11:45:25;30.70;75.10
17170;DHT22;8700;48.222;16.342;2022-07-06T11:48:49;29.90;77.00
17170;DHT22;8700;48.222;16.342;2022-07-06T11:52:12;29.50;79.20
17170;DHT22;8700;48.222;16.342;2022-07-06T11:55:34;29.60;80.00
17170;DHT22;8700;48.222;16.342;2022-07-06T11:58:58;29.40;81.20
17170;DHT22;8700;48.222;16.342;2022-07-06T12:02:20;29.80;81.10
17170;DHT22;8700;48.222;16.342;2022-07-06T12:05:43;30.10;81.00
17170;DHT22;8700;48.222;16.342;2022-07-06T12:09:10;30.30;80.50
17170;DHT22;8700;48.222;16.342;2022-07-06T12:12:31;30.20;80.70
17170;DHT22;8700;48.222;16.342;2022-07-06T12:15:53;30.40;80.20
17170;DHT22;8700;48.222;16.342;2022-07-06T12:19:15;30.70;78.90
17170;DHT22;8700;48.222;16.342;2022-07-06T12:22:41;30.30;79.10
17170;DHT22;8700;48.222;16.342;2022-07-06T12:26:04;30.10;77.30
17170;DHT22;8700;48.222;16.342;2022-07-06T12:29:26;30.10;77.00
17170;DHT22;8700;48.222;16.342;2022-07-06T12:33:10;29.90;77.20
17170;DHT22;8700;48.222;16.342;2022-07-06T12:36:42;29.60;74.20
17170;DHT22;8700;48.222;16.342;2022-07-06T12:40:13;29.00;75.40
17170;DHT22;8700;48.222;16.342;2022-07-06T12:43:37;28.90;73.30
17170;DHT22;8700;48.222;16.342;2022-07-06T12:47:03;29.30;74.70
17170;DHT22;8700;48.222;16.342;2022-07-06T12:50:31;29.70;76.90
17170;DHT22;8700;48.222;16.342;2022-07-06T12:54:11;29.90;78.30
17170;DHT22;8700;48.222;16.342;2022-07-06T12:57:48;30.30;76.70
17170;DHT22;8700;48.222;16.342;2022-07-06T13:01:14;30.70;74.60
17170;DHT22;8700;48.222;16.342;2022-07-06T13:04:37;30.40;75.10
17170;DHT22;8700;48.222;16.342;2022-07-06T13:07:58;30.20;73.70
17170;DHT22;8700;48.222;16.342;2022-07-06T13:11:22;30.10;72.70
17170;DHT22;8700;48.222;16.342;2022-07-06T13:14:45;30.10;73.40
17170;DHT22;8700;48.222;16.342;2022-07-06T13:18:09;29.90;72.70
17170;DHT22;8700;48.222;16.342;2022-07-06T13:21:30;29.50;71.10
17170;DHT22;8700;48.222;16.342;2022-07-06T13:24:52;29.00;71.10
17170;DHT22;8700;48.222;16.342;2022-07-06T13:28:13;28.80;70.50
17170;DHT22;8700;48.222;16.342;2022-07-06T13:31:37;28.80;71.50
17170;DHT22;8700;48.222;16.342;2022-07-06T13:35:00;28.90;71.20
17170;DHT22;8700;48.222;16.342;2022-07-06T13:38:23;28.60;71.80
17170;DHT22;8700;48.222;16.342;2022-07-06T13:41:45;28.70;72.20
17170;DHT22;8700;48.222;16.342;2022-07-06T13:45:07;28.90;72.00
17170;DHT22;8700;48.222;16.342;2022-07-06T13:48:30;29.00;71.70
17170;DHT22;8700;48.222;16.342;2022-07-06T13:51:52;28.80;70.80
17170;DHT22;8700;48.222;16.342;2022-07-06T13:55:22;28.00;76.40
17170;DHT22;8700;48.222;16.342;2022-07-06T13:58:43;27.90;76.50
17170;DHT22;8700;48.222;16.342;2022-07-06T14:02:05;28.20;75.10
17170;DHT22;8700;48.222;16.342;2022-07-06T14:05:29;27.40;75.60
17170;DHT22;8700;48.222;16.342;2022-07-06T14:08:52;27.10;76.30
17170;DHT22;8700;48.222;16.342;2022-07-06T14:12:14;27.70;75.40
17170;DHT22;8700;48.222;16.342;2022-07-06T14:15:36;28.10;75.40
17170;DHT22;8700;48.222;16.342;2022-07-06T14:18:58;28.10;75.90
17170;DHT22;8700;48.222;16.342;2022-07-06T14:22:22;28.90;74.70
17170;DHT22;8700;48.222;16.342;2022-07-06T14:25:46;29.10;74.40
17170;DHT22;8700;48.222;16.342;2022-07-06T14:29:08;28.30;74.50
17170;DHT22;8700;48.222;16.342;2022-07-06T14:32:30;28.20;75.90
17170;DHT22;8700;48.222;16.342;2022-07-06T14:35:51;28.60;75.00
17170;DHT22;8700;48.222;16.342;2022-07-06T14:39:18;28.50;75.20
17170;DHT22;8700;48.222;16.342;2022-07-06T14:42:40;28.00;77.10
17170;DHT22;8700;48.222;16.342;2022-07-06T14:46:02;27.30;81.50
17170;DHT22;8700;48.222;16.342;2022-07-06T14:49:23;26.70;85.90
17170;DHT22;8700;48.222;16.342;2022-07-06T14:52:45;26.20;88.20
17170;DHT22;8700;48.222;16.342;2022-07-06T14:56:09;25.70;90.30
17170;DHT22;8700;48.222;16.342;2022-07-06T14:59:30;25.20;91.60
17170;DHT22;8700;48.222;16.342;2022-07-06T15:02:52;25.40;91.70
17170;DHT22;8700;48.222;16.342;2022-07-06T15:06:14;25.80;91.40
17170;DHT22;8700;48.222;16.342;2022-07-06T15:09:35;25.90;91.80
17170;DHT22;8700;48.222;16.342;2022-07-06T15:12:59;26.20;91.90
17170;DHT22;8700;48.222;16.342;2022-07-06T15:16:21;26.00;92.00
17170;DHT22;8700;48.222;16.342;2022-07-06T15:19:43;26.50;91.90
17170;DHT22;8700;48.222;16.342;2022-07-06T15:23:04;26.30;91.90
17170;DHT22;8700;48.222;16.342;2022-07-06T15:26:26;26.50;91.60
17170;DHT22;8700;48.222;16.342;2022-07-06T15:29:49;27.20;90.80
17170;DHT22;8700;48.222;16.342;2022-07-06T15:33:11;27.40;90.10
17170;DHT22;8700;48.222;16.342;2022-07-06T15:36:32;27.30;88.70
17170;DHT22;8700;48.222;16.342;2022-07-06T15:39:54;27.40;86.60
17170;DHT22;8700;48.222;16.342;2022-07-06T15:43:15;27.40;85.40
17170;DHT22;8700;48.222;16.342;2022-07-06T15:46:38;27.60;84.30
17170;DHT22;8700;48.222;16.342;2022-07-06T15:50:00;27.70;82.80
17170;DHT22;8700;48.222;16.342;2022-07-06T15:53:22;27.70;83.20
17170;DHT22;8700;48.222;16.342;2022-07-06T15:56:43;27.80;83.60
17170;DHT22;8700;48.222;16.342;2022-07-06T16:00:08;28.00;84.30
17170;DHT22;8700;48.222;16.342;2022-07-06T16:03:33;28.10;81.80
17170;DHT22;8700;48.222;16.342;2022-07-06T16:06:54;28.00;81.90
17170;DHT22;8700;48.222;16.342;2022-07-06T16:10:16;27.90;82.40
17170;DHT22;8700;48.222;16.342;2022-07-06T16:13:38;27.90;84.30
17170;DHT22;8700;48.222;16.342;2022-07-06T16:16:59;27.80;84.50
17170;DHT22;8700;48.222;16.342;2022-07-06T16:20:22;27.80;84.20
17170;DHT22;8700;48.222;16.342;2022-07-06T16:23:44;27.60;84.20
17170;DHT22;8700;48.222;16.342;2022-07-06T16:27:06;27.40;85.10
17170;DHT22;8700;48.222;16.342;2022-07-06T16:30:28;27.00;87.50
17170;DHT22;8700;48.222;16.342;2022-07-06T16:33:49;26.70;88.90
17170;DHT22;8700;48.222;16.342;2022-07-06T16:37:12;26.50;89.30
17170;DHT22;8700;48.222;16.342;2022-07-06T16:40:35;27.00;89.00
17170;DHT22;8700;48.222;16.342;2022-07-06T16:43:56;27.00;87.40
17170;DHT22;8700;48.222;16.342;2022-07-06T16:47:19;27.10;86.80
17170;DHT22;8700;48.222;16.342;2022-07-06T16:50:40;27.00;87.40
17170;DHT22;8700;48.222;16.342;2022-07-06T16:54:04;26.90;87.80
17170;DHT22;8700;48.222;16.342;2022-07-06T16:57:25;26.80;90.10
17170;DHT22;8700;48.222;16.342;2022-07-06T17:00:49;26.90;89.90
17170;DHT22;8700;48.222;16.342;2022-07-06T17:04:11;26.80;89.30
17170;DHT22;8700;48.222;16.342;2022-07-06T17:07:33;26.80;87.40
17170;DHT22;8700;48.222;16.342;2022-07-06T17:10:56;26.60;87.80
17170;DHT22;8700;48.222;16.342;2022-07-06T17:14:18;26.60;89.40
17170;DHT22;8700;48.222;16.342;2022-07-06T17:17:40;26.50;90.00
17170;DHT22;8700;48.222;16.342;2022-07-06T17:21:03;26.50;89.70
17170;DHT22;8700;48.222;16.342;2022-07-06T17:24:26;26.30;90.80
17170;DHT22;8700;48.222;16.342;2022-07-06T17:27:50;26.00;91.20
17170;DHT22;8700;48.222;16.342;2022-07-06T17:31:12;25.90;91.00
17170;DHT22;8700;48.222;16.342;2022-07-06T17:34:42;26.00;91.10
17170;DHT22;8700;48.222;16.342;2022-07-06T17:38:06;25.90;91.20
17170;DHT22;8700;48.222;16.342;2022-07-06T17:41:28;25.80;91.50
17170;DHT22;8700;48.222;16.342;2022-07-06T17:44:54;25.70;91.90
17170;DHT22;8700;48.222;16.342;2022-07-06T17:48:17;25.90;91.80
17170;DHT22;8700;48.222;16.342;2022-07-06T17:51:38;25.90;91.90
17170;DHT22;8700;48.222;16.342;2022-07-06T17:54:59;26.00;99.90
17170;DHT22;8700;48.222;16.342;2022-07-06T17:58:21;26.20;97.10
17170;DHT22;8700;48.222;16.342;2022-07-06T18:01:47;26.00;99.90
17170;DHT22;8700;48.222;16.342;2022-07-06T18:05:11;26.00;96.30
17170;DHT22;8700;48.222;16.342;2022-07-06T18:08:33;25.70;96.50
17170;DHT22;8700;48.222;16.342;2022-07-06T18:11:56;25.50;97.00
17170;DHT22;8700;48.222;16.342;2022-07-06T18:15:18;25.50;98.00
17170;DHT22;8700;48.222;16.342;2022-07-06T18:18:41;25.50;99.10
17170;DHT22;8700;48.222;16.342;2022-07-06T18:22:03;25.40;99.80
17170;DHT22;8700;48.222;16.342;2022-07-06T18:25:25;25.40;99.90
17170;DHT22;8700;48.222;16.342;2022-07-06T18:28:49;25.10;99.90
17170;DHT22;8700;48.222;16.342;2022-07-06T18:32:15;24.90;99.90
17170;DHT22;8700;48.222;16.342;2022-07-06T18:35:39;24.80;99.90
17170;DHT22;8700;48.222;16.342;2022-07-06T18:39:02;24.70;99.90
17170;DHT22;8700;48.222;16.342;2022-07-06T18:42:39;24.70;99.90
17170;DHT22;8700;48.222;16.342;2022-07-06T18:46:03;24.60;99.90
17170;DHT22;8700;48.222;16.342;2022-07-06T18:49:26;24.50;99.90
17170;DHT22;8700;48.222;16.342;2022-07-06T18:53:16;24.40;99.90
17170;DHT22;8700;48.222;16.342;2022-07-06T18:56:40;24.30;99.90
17170;DHT22;8700;48.222;16.342;2022-07-06T19:00:03;23.90;99.90
17170;DHT22;8700;48.222;16.342;2022-07-06T19:03:26;24.00;99.90
17170;DHT22;8700;48.222;16.342;2022-07-06T19:06:51;23.90;99.90
17170;DHT22;8700;48.222;16.342;2022-07-06T19:10:17;23.80;99.90
17170;DHT22;8700;48.222;16.342;2022-07-06T19:13:39;23.70;99.90
17170;DHT22;8700;48.222;16.342;2022-07-06T19:17:04;23.50;99.90
17170;DHT22;8700;48.222;16.342;2022-07-06T19:20:28;23.50;99.90
17170;DHT22;8700;48.222;16.342;2022-07-06T19:23:52;23.60;99.90
17170;DHT22;8700;48.222;16.342;2022-07-06T19:27:18;23.50;99.90
17170;DHT22;8700;48.222;16.342;2022-07-06T19:30:44;23.50;99.90
17170;DHT22;8700;48.222;16.342;2022-07-06T20:04:16;23.30;99.90
17170;DHT22;8700;48.222;16.342;2022-07-06T20:07:40;23.40;99.90
17170;DHT22;8700;48.222;16.342;2022-07-06T20:11:03;23.40;99.90
17170;DHT22;8700;48.222;16.342;2022-07-06T20:14:28;23.30;99.90
17170;DHT22;8700;48.222;16.342;2022-07-06T20:17:50;23.20;99.90
17170;DHT22;8700;48.222;16.342;2022-07-06T20:21:14;23.10;99.90
17170;DHT22;8700;48.222;16.342;2022-07-06T20:24:36;22.90;99.90
17170;DHT22;8700;48.222;16.342;2022-07-06T20:27:58;22.80;99.90
17170;DHT22;8700;48.222;16.342;2022-07-06T20:31:19;22.70;99.90
17170;DHT22;8700;48.222;16.342;2022-07-06T20:34:41;22.60;99.90
17170;DHT22;8700;48.222;16.342;2022-07-06T20:38:04;22.60;99.90
17170;DHT22;8700;48.222;16.342;2022-07-06T20:41:27;22.70;99.90
17170;DHT22;8700;48.222;16.342;2022-07-06T20:44:50;22.70;99.90
17170;DHT22;8700;48.222;16.342;2022-07-06T20:48:12;22.80;99.90
17170;DHT22;8700;48.222;16.342;2022-07-06T20:51:34;22.90;99.90
17170;DHT22;8700;48.222;16.342;2022-07-06T20:55:01;22.90;99.90
17170;DHT22;8700;48.222;16.342;2022-07-06T20:58:23;23.10;99.90
17170;DHT22;8700;48.222;16.342;2022-07-06T21:01:45;23.20;99.90
17170;DHT22;8700;48.222;16.342;2022-07-06T21:05:08;23.00;99.90
17170;DHT22;8700;48.222;16.342;2022-07-06T21:08:32;23.00;99.90
17170;DHT22;8700;48.222;16.342;2022-07-06T21:11:55;23.00;99.90
17170;DHT22;8700;48.222;16.342;2022-07-06T21:15:17;23.20;99.90
17170;DHT22;8700;48.222;16.342;2022-07-06T21:18:38;23.10;99.90
17170;DHT22;8700;48.222;16.342;2022-07-06T21:22:00;23.00;99.90
17170;DHT22;8700;48.222;16.342;2022-07-06T21:25:21;22.80;99.90
17170;DHT22;8700;48.222;16.342;2022-07-06T21:28:45;22.60;99.90
17170;DHT22;8700;48.222;16.342;2022-07-06T21:32:07;22.70;99.90
17170;DHT22;8700;48.222;16.342;2022-07-06T21:35:29;22.50;99.90
17170;DHT22;8700;48.222;16.342;2022-07-06T21:38:51;22.40;99.90
17170;DHT22;8700;48.222;16.342;2022-07-06T21:42:13;22.50;99.90
17170;DHT22;8700;48.222;16.342;2022-07-06T21:45:36;22.40;99.90
17170;DHT22;8700;48.222;16.342;2022-07-06T21:48:58;22.50;99.90
17170;DHT22;8700;48.222;16.342;2022-07-06T21:52:19;22.40;99.90
17170;DHT22;8700;48.222;16.342;2022-07-06T21:55:41;22.30;99.90
17170;DHT22;8700;48.222;16.342;2022-07-06T21:59:03;22.40;99.90